createdAt,value
2023-05-18T00:00:54.156Z,40.60
2023-05-18T00:03:43.959Z,40.60
2023-05-18T00:06:33.416Z,40.60
2023-05-18T00:09:22.714Z,40.60
2023-05-18T00:12:12.080Z,40.60
2023-05-18T00:15:01.432Z,40.60
2023-05-18T00:17:53.491Z,40.60
2023-05-18T00:20:43.746Z,40.70
2023-05-18T00:23:33.206Z,40.60
2023-05-18T00:26:22.613Z,40.60
2023-05-18T00:29:14.343Z,40.70
2023-05-18T00:32:03.707Z,40.60
2023-05-18T00:34:54.456Z,40.70
2023-05-18T00:37:45.517Z,40.70
2023-05-18T00:40:34.918Z,40.70
2023-05-18T00:43:24.223Z,40.80
2023-05-18T00:46:13.619Z,40.70
2023-05-18T00:49:03.638Z,40.80
2023-05-18T00:51:55.417Z,40.80
2023-05-18T00:54:47.685Z,40.90
2023-05-18T00:57:38.356Z,40.80
2023-05-18T01:00:28.417Z,40.90
2023-05-18T01:03:21.336Z,40.90
2023-05-18T01:06:13.011Z,40.90
2023-05-18T01:09:06.883Z,40.90
2023-05-18T01:12:03.677Z,41.00
2023-05-18T01:15:05.300Z,41.10
2023-05-18T01:18:14.906Z,41.10
2023-05-18T01:21:19.424Z,41.30
2023-05-18T01:24:26.781Z,41.10
2023-05-18T01:27:24.655Z,41.30
2023-05-18T01:30:18.045Z,41.10
2023-05-18T01:33:09.873Z,41.20
2023-05-18T01:35:59.271Z,41.20
2023-05-18T01:38:49.453Z,41.10
2023-05-18T01:41:44.736Z,41.20
2023-05-18T01:44:41.550Z,41.20
2023-05-18T01:47:34.764Z,41.40
2023-05-18T01:50:32.992Z,41.30
2023-05-18T01:53:27.265Z,41.40
2023-05-18T01:56:16.943Z,41.40
2023-05-18T01:59:06.645Z,41.40
2023-05-18T02:02:01.052Z,41.40
2023-05-18T02:04:50.668Z,41.60
2023-05-18T02:07:40.807Z,41.60
2023-05-18T02:10:31.180Z,41.60
2023-05-18T02:13:20.595Z,41.60
2023-05-18T02:16:10.706Z,41.70
2023-05-18T02:19:01.479Z,41.60
2023-05-18T02:21:52.864Z,41.80
2023-05-18T02:24:42.326Z,41.80
2023-05-18T02:27:31.757Z,41.80
2023-05-18T02:30:21.850Z,41.80
2023-05-18T02:33:13.173Z,41.80
2023-05-18T02:36:04.295Z,41.70
2023-05-18T02:38:53.724Z,41.80
2023-05-18T02:41:43.035Z,41.80
2023-05-18T02:44:32.524Z,41.80
2023-05-18T02:47:21.838Z,41.90
2023-05-18T02:50:13.416Z,41.90
2023-05-18T02:53:05.489Z,41.90
2023-05-18T02:55:58.104Z,41.80
2023-05-18T02:58:57.740Z,41.90
2023-05-18T03:01:55.022Z,41.90
2023-05-18T03:04:44.408Z,41.90
2023-05-18T03:07:33.857Z,42.00
2023-05-18T03:10:25.141Z,42.00
2023-05-18T03:13:14.738Z,42.10
2023-05-18T03:16:04.067Z,43.10
2023-05-18T03:18:53.604Z,43.10
2023-05-18T03:21:43.952Z,43.20
2023-05-18T03:24:40.083Z,43.20
2023-05-18T03:27:34.139Z,43.30
2023-05-18T03:30:24.767Z,43.30
2023-05-18T03:33:14.425Z,43.40
2023-05-18T03:36:06.333Z,43.40
2023-05-18T03:38:55.811Z,43.50
2023-05-18T03:41:45.295Z,43.30
2023-05-18T03:44:36.131Z,43.50
2023-05-18T03:47:25.993Z,43.70
2023-05-18T03:50:15.781Z,43.70
2023-05-18T03:53:05.442Z,43.80
2023-05-18T03:55:54.753Z,43.90
2023-05-18T03:58:44.497Z,44.00
2023-05-18T04:01:35.376Z,44.00
2023-05-18T04:04:27.272Z,44.20
2023-05-18T04:07:17.525Z,44.20
2023-05-18T04:10:08.589Z,44.30
2023-05-18T04:12:58.233Z,44.50
2023-05-18T04:15:47.696Z,44.60
2023-05-18T04:18:38.546Z,44.80
2023-05-18T04:21:29.575Z,44.00
2023-05-18T04:24:19.521Z,44.10
2023-05-18T04:27:10.589Z,44.30
2023-05-18T04:29:59.913Z,44.70
2023-05-18T04:32:49.358Z,45.10
2023-05-18T04:35:40.069Z,45.50
2023-05-18T04:38:29.711Z,46.00
2023-05-18T04:41:20.582Z,46.70
2023-05-18T04:44:10.600Z,47.40
2023-05-18T04:47:00.061Z,48.00
2023-05-18T04:49:52.320Z,48.60
2023-05-18T04:52:49.453Z,49.20
2023-05-18T04:55:42.776Z,49.50
2023-05-18T04:58:36.163Z,49.80
2023-05-18T05:01:25.569Z,49.80
2023-05-18T05:04:15.290Z,49.90
2023-05-18T05:07:04.659Z,49.80
2023-05-18T05:09:56.946Z,49.60
2023-05-18T05:12:49.346Z,49.20
2023-05-18T05:15:39.011Z,49.00
2023-05-18T05:18:28.407Z,48.80
2023-05-18T05:21:18.068Z,48.80
2023-05-18T05:24:08.517Z,48.50
2023-05-18T05:26:59.982Z,48.50
2023-05-18T05:29:50.352Z,48.10
2023-05-18T05:32:39.957Z,48.00
2023-05-18T05:35:31.886Z,47.60
2023-05-18T05:38:23.109Z,47.40
2023-05-18T05:41:13.268Z,47.40
2023-05-18T05:44:05.586Z,47.10
2023-05-18T05:46:55.851Z,46.80
2023-05-18T05:49:45.811Z,46.70
2023-05-18T05:52:35.182Z,46.60
2023-05-18T05:55:27.204Z,46.20
2023-05-18T05:58:16.756Z,45.90
2023-05-18T06:01:12.377Z,45.40
2023-05-18T06:04:04.226Z,45.00
2023-05-18T06:06:54.177Z,45.00
2023-05-18T06:09:44.124Z,44.60
2023-05-18T06:12:33.564Z,44.30
2023-05-18T06:15:23.181Z,43.90
2023-05-18T06:18:14.515Z,43.60
2023-05-18T06:21:04.188Z,43.20
2023-05-18T06:23:53.628Z,42.80
2023-05-18T06:26:59.843Z,42.00
2023-05-18T06:30:01.921Z,41.80
2023-05-18T06:33:13.698Z,41.70
2023-05-18T06:36:03.957Z,41.50
2023-05-18T06:38:53.397Z,41.30
2023-05-18T06:41:45.029Z,41.40
2023-05-18T06:44:41.614Z,41.00
2023-05-18T06:47:39.666Z,40.40
2023-05-18T06:50:30.378Z,40.20
2023-05-18T06:53:19.829Z,39.70
2023-05-18T06:56:11.703Z,39.60
2023-05-18T06:59:01.627Z,39.40
2023-05-18T07:01:51.880Z,39.40
2023-05-18T07:04:41.624Z,39.30
2023-05-18T07:07:32.423Z,38.70
2023-05-18T07:10:22.656Z,38.50
2023-05-18T07:13:12.430Z,38.20
2023-05-18T07:16:02.095Z,37.80
2023-05-18T07:18:51.550Z,37.60
2023-05-18T07:21:41.060Z,36.60
2023-05-18T07:24:32.049Z,35.90
2023-05-18T07:27:21.385Z,34.80
2023-05-18T07:30:12.030Z,34.50
2023-05-18T07:33:02.053Z,34.50
2023-05-18T07:35:51.535Z,34.60
2023-05-18T07:38:41.127Z,35.30
2023-05-18T07:41:32.357Z,35.60
2023-05-18T07:44:21.713Z,35.30
2023-05-18T07:47:11.668Z,35.20
2023-05-18T07:50:01.305Z,35.80
2023-05-18T07:52:50.738Z,36.20
2023-05-18T07:55:42.110Z,37.00
2023-05-18T07:58:32.879Z,37.20
2023-05-18T08:01:27.244Z,36.70
2023-05-18T08:04:16.735Z,36.20
2023-05-18T08:07:06.315Z,36.20
2023-05-18T08:09:55.647Z,35.80
2023-05-18T08:12:45.001Z,34.90
2023-05-18T08:15:37.211Z,35.00
2023-05-18T08:18:26.944Z,35.10
2023-05-18T08:21:16.719Z,35.20
2023-05-18T08:24:08.477Z,34.80
2023-05-18T08:26:57.844Z,34.60
2023-05-18T08:29:47.354Z,34.70
2023-05-18T08:32:38.226Z,34.70
2023-05-18T08:35:27.735Z,34.10
2023-05-18T08:38:17.742Z,34.00
2023-05-18T08:41:15.793Z,34.10
2023-05-18T08:44:15.048Z,34.00
2023-05-18T08:47:10.585Z,33.80
2023-05-18T08:50:04.152Z,33.90
2023-05-18T08:52:57.088Z,33.40
2023-05-18T08:55:47.651Z,33.30
2023-05-18T08:58:43.857Z,33.40
2023-05-18T09:01:33.840Z,33.40
2023-05-18T09:04:24.084Z,33.60
2023-05-18T09:07:15.612Z,33.10
2023-05-18T09:10:05.981Z,32.90
2023-05-18T09:12:57.829Z,32.60
2023-05-18T09:15:47.696Z,32.90
2023-05-18T09:18:37.535Z,33.10
2023-05-18T09:21:27.301Z,32.90
2023-05-18T09:24:19.403Z,32.70
2023-05-18T09:27:09.258Z,32.60
2023-05-18T09:29:59.852Z,33.50
2023-05-18T09:32:49.354Z,33.00
2023-05-18T09:35:39.247Z,33.20
2023-05-18T09:38:29.937Z,33.40
2023-05-18T09:41:21.874Z,33.70
2023-05-18T09:44:12.684Z,33.50
2023-05-18T09:47:02.410Z,33.50
2023-05-18T09:49:51.827Z,33.40
2023-05-18T09:52:45.996Z,33.30
2023-05-18T09:55:39.880Z,32.80
2023-05-18T09:58:33.975Z,32.70
2023-05-18T10:01:23.448Z,32.80
2023-05-18T10:04:12.930Z,32.90
2023-05-18T10:07:03.286Z,33.10
2023-05-18T10:10:05.822Z,33.30
2023-05-18T10:12:58.653Z,34.30
2023-05-18T10:15:56.397Z,33.90
2023-05-18T10:18:46.570Z,34.10
2023-05-18T10:21:38.120Z,35.20
2023-05-18T10:24:30.911Z,34.10
2023-05-18T10:27:27.376Z,33.50
2023-05-18T10:30:17.686Z,33.70
2023-05-18T10:33:20.593Z,33.70
2023-05-18T10:36:19.809Z,34.00
2023-05-18T10:39:09.997Z,33.60
2023-05-18T10:42:01.845Z,33.80
2023-05-18T10:44:54.661Z,33.50
2023-05-18T10:47:45.488Z,33.20
2023-05-18T10:50:38.843Z,33.30
2023-05-18T10:53:29.484Z,33.10
2023-05-18T10:56:19.038Z,34.20
2023-05-18T10:59:09.589Z,34.40
2023-05-18T11:02:00.511Z,34.20
2023-05-18T11:04:54.010Z,33.70
2023-05-18T11:07:47.392Z,32.60
2023-05-18T11:10:42.470Z,32.10
2023-05-18T11:13:33.591Z,32.10
2023-05-18T11:16:25.460Z,32.00
2023-05-18T11:19:14.976Z,31.90
2023-05-18T11:22:13.539Z,31.80
2023-05-18T11:25:09.800Z,31.50
2023-05-18T11:28:02.501Z,31.50
2023-05-18T11:30:52.818Z,31.50
2023-05-18T11:33:43.096Z,31.30
2023-05-18T11:36:46.439Z,31.20
2023-05-18T11:39:37.700Z,30.90
2023-05-18T11:42:35.580Z,31.10
2023-05-18T11:45:25.178Z,31.10
2023-05-18T11:48:14.696Z,31.00
2023-05-18T11:51:09.368Z,31.00
2023-05-18T11:53:59.564Z,31.00
2023-05-18T11:56:49.843Z,31.20
2023-05-18T11:59:43.114Z,31.30
2023-05-18T12:02:33.990Z,31.30
2023-05-18T12:05:23.835Z,31.40
2023-05-18T12:08:13.857Z,31.70
2023-05-18T12:11:03.856Z,31.80
2023-05-18T12:13:53.592Z,31.20
2023-05-18T12:16:45.018Z,30.60
2023-05-18T12:19:40.413Z,30.90
2023-05-18T12:22:29.832Z,31.10
2023-05-18T12:25:19.670Z,31.40
2023-05-18T12:28:10.034Z,31.30
2023-05-18T12:31:00.212Z,31.20
2023-05-18T12:33:51.761Z,31.20
2023-05-18T12:36:44.642Z,31.10
2023-05-18T12:39:34.002Z,31.00
2023-05-18T12:42:23.658Z,30.90
2023-05-18T12:45:13.419Z,31.00
2023-05-18T12:48:06.456Z,30.90
2023-05-18T12:51:01.839Z,30.80
2023-05-18T12:53:53.814Z,30.80
2023-05-18T12:57:01.463Z,31.00
2023-05-18T12:59:51.644Z,31.10
2023-05-18T13:02:41.303Z,31.00
2023-05-18T13:05:31.083Z,31.00
2023-05-18T13:08:22.797Z,30.80
2023-05-18T13:11:16.747Z,30.80
2023-05-18T13:14:08.930Z,30.60
2023-05-18T13:16:58.662Z,30.70
2023-05-18T13:19:48.076Z,30.90
2023-05-18T13:22:37.454Z,30.80
2023-05-18T13:25:28.393Z,30.70
2023-05-18T13:28:19.269Z,30.80
2023-05-18T13:31:09.428Z,30.80
2023-05-18T13:34:00.495Z,30.90
2023-05-18T13:36:49.860Z,31.00
2023-05-18T13:39:39.287Z,30.90
2023-05-18T13:42:30.034Z,31.10
2023-05-18T13:45:21.504Z,31.10
2023-05-18T13:48:11.350Z,31.20
2023-05-18T13:51:00.964Z,31.10
2023-05-18T13:53:50.492Z,31.10
2023-05-18T13:56:39.845Z,31.20
2023-05-18T13:59:34.498Z,31.30
2023-05-18T14:02:23.945Z,31.40
2023-05-18T14:05:13.748Z,31.40
2023-05-18T14:08:03.122Z,31.60
2023-05-18T14:10:52.503Z,31.60
2023-05-18T14:13:41.855Z,31.60
2023-05-18T14:16:32.628Z,31.60
2023-05-18T14:19:22.181Z,31.80
2023-05-18T14:22:11.672Z,32.60
2023-05-18T14:25:01.923Z,32.00
2023-05-18T14:27:51.372Z,32.10
2023-05-18T14:30:41.083Z,32.10
2023-05-18T14:33:31.778Z,32.20
2023-05-18T14:36:22.315Z,32.20
2023-05-18T14:39:11.780Z,32.20
2023-05-18T14:42:01.232Z,32.20
2023-05-18T14:44:50.610Z,32.00
2023-05-18T14:47:39.966Z,32.00
2023-05-18T14:50:30.960Z,32.00
2023-05-18T14:53:20.612Z,32.10
2023-05-18T14:56:10.040Z,32.10
2023-05-18T14:58:59.421Z,32.10
2023-05-18T15:01:48.814Z,32.30
2023-05-18T15:04:38.420Z,32.30
2023-05-18T15:07:29.276Z,32.30
2023-05-18T15:10:18.586Z,32.20
2023-05-18T15:13:07.971Z,31.90
2023-05-18T15:15:57.859Z,31.70
2023-05-18T15:18:47.388Z,31.50
2023-05-18T15:21:36.818Z,31.50
2023-05-18T15:24:27.593Z,31.60
2023-05-18T15:27:17.062Z,31.70
2023-05-18T15:30:11.423Z,31.80
2023-05-18T15:33:02.242Z,31.90
2023-05-18T15:35:51.805Z,31.90
2023-05-18T15:38:41.182Z,31.90
2023-05-18T15:41:34.391Z,31.80
2023-05-18T15:44:23.797Z,31.70
2023-05-18T15:47:13.205Z,31.70
2023-05-18T15:50:02.656Z,31.70
2023-05-18T15:52:52.375Z,31.70
2023-05-18T15:55:41.845Z,31.80
2023-05-18T15:58:33.134Z,31.90
2023-05-18T16:01:22.834Z,33.10
2023-05-18T16:04:12.611Z,32.90
2023-05-18T16:07:02.741Z,32.80
2023-05-18T16:09:52.210Z,32.80
2023-05-18T16:12:41.545Z,32.70
2023-05-18T16:15:34.116Z,32.80
2023-05-18T16:18:23.514Z,32.90
2023-05-18T16:21:13.149Z,32.90
2023-05-18T16:24:02.542Z,32.90
2023-05-18T16:26:51.946Z,33.00
2023-05-18T16:29:41.532Z,32.80
2023-05-18T16:32:32.583Z,32.70
2023-05-18T16:35:23.666Z,32.70
2023-05-18T16:38:14.179Z,32.50
2023-05-18T16:41:03.510Z,32.50
2023-05-18T16:43:52.947Z,32.50
2023-05-18T16:46:42.322Z,32.60
2023-05-18T16:49:33.129Z,32.50
2023-05-18T16:52:22.540Z,32.50
2023-05-18T16:55:15.165Z,32.50
2023-05-18T16:58:04.743Z,32.50
2023-05-18T17:00:54.353Z,32.60
2023-05-18T17:03:43.741Z,32.70
2023-05-18T17:06:34.676Z,32.70
2023-05-18T17:09:24.347Z,32.70
2023-05-18T17:12:14.034Z,32.70
2023-05-18T17:15:03.486Z,32.70
2023-05-18T17:17:53.149Z,32.80
2023-05-18T17:20:42.525Z,32.80
2023-05-18T17:23:33.486Z,32.80
2023-05-18T17:26:25.022Z,32.70
2023-05-18T17:29:17.110Z,32.70
2023-05-18T17:32:08.011Z,32.90
2023-05-18T17:34:57.392Z,32.90
2023-05-18T17:37:48.866Z,32.90
2023-05-18T17:40:39.645Z,33.00
2023-05-18T17:43:28.960Z,33.00
2023-05-18T17:46:18.478Z,33.10
2023-05-18T17:49:07.922Z,33.10
2023-05-18T17:51:58.554Z,33.10
2023-05-18T17:54:48.605Z,33.30
2023-05-18T17:57:45.049Z,33.40
2023-05-18T18:00:34.748Z,33.40
2023-05-18T18:03:24.233Z,33.30
2023-05-18T18:06:13.613Z,33.40
2023-05-18T18:09:04.808Z,34.20
2023-05-18T18:11:57.127Z,33.50
2023-05-18T18:14:47.900Z,33.50
2023-05-18T18:17:37.353Z,33.60
2023-05-18T18:20:27.175Z,33.60
2023-05-18T18:23:16.829Z,33.60
2023-05-18T18:26:07.538Z,33.70
2023-05-18T18:28:56.890Z,33.80
2023-05-18T18:31:47.589Z,33.80
2023-05-18T18:34:36.946Z,33.90
2023-05-18T18:37:27.643Z,33.90
2023-05-18T18:40:17.780Z,33.90
2023-05-18T18:43:07.410Z,34.10
2023-05-18T18:45:57.938Z,34.10
2023-05-18T18:48:48.788Z,34.10
2023-05-18T18:51:38.151Z,34.10
2023-05-18T18:54:27.521Z,34.20
2023-05-18T18:57:16.908Z,34.10
2023-05-18T19:00:11.091Z,34.20
2023-05-18T19:03:00.477Z,34.30
2023-05-18T19:05:51.716Z,34.20
2023-05-18T19:08:41.120Z,34.30
2023-05-18T19:11:30.523Z,34.40
2023-05-18T19:14:20.044Z,34.40
2023-05-18T19:17:09.476Z,34.50
2023-05-18T19:19:58.991Z,34.50
2023-05-18T19:22:49.745Z,34.60
2023-05-18T19:25:39.128Z,34.60
2023-05-18T19:28:28.680Z,34.60
2023-05-18T19:31:18.056Z,34.40
2023-05-18T19:34:07.545Z,34.40
2023-05-18T19:36:56.979Z,34.40
2023-05-18T19:39:47.699Z,34.20
2023-05-18T19:42:37.102Z,34.30
2023-05-18T19:45:26.708Z,34.30
2023-05-18T19:48:17.510Z,34.30
2023-05-18T19:51:07.190Z,34.30
2023-05-18T19:53:56.552Z,34.30
2023-05-18T19:56:47.322Z,34.30
2023-05-18T19:59:37.263Z,34.40
2023-05-18T20:02:26.905Z,34.40
2023-05-18T20:05:18.862Z,34.50
2023-05-18T20:08:10.044Z,34.50
2023-05-18T20:11:00.591Z,34.40
2023-05-18T20:13:51.377Z,34.50
2023-05-18T20:16:41.721Z,34.40
2023-05-18T20:19:31.418Z,34.60
2023-05-18T20:22:21.369Z,34.60
2023-05-18T20:25:12.160Z,34.60
2023-05-18T20:28:03.252Z,34.60
2023-05-18T20:30:54.221Z,35.30
2023-05-18T20:33:44.517Z,34.60
2023-05-18T20:36:35.819Z,34.70
2023-05-18T20:39:26.089Z,34.80
2023-05-18T20:42:15.726Z,34.90
2023-05-18T20:45:05.754Z,35.00
2023-05-18T20:47:56.882Z,35.70
2023-05-18T20:50:46.262Z,35.10
2023-05-18T20:53:35.652Z,35.10
2023-05-18T20:56:26.586Z,35.10
2023-05-18T20:59:16.356Z,35.10
2023-05-18T21:02:06.319Z,35.00
2023-05-18T21:04:57.840Z,35.10
2023-05-18T21:07:48.818Z,35.20
2023-05-18T21:10:38.600Z,35.20
2023-05-18T21:13:27.939Z,35.30
2023-05-18T21:16:17.462Z,35.30
2023-05-18T21:19:06.961Z,35.40
2023-05-18T21:21:57.781Z,35.40
2023-05-18T21:24:47.203Z,35.50
2023-05-18T21:27:37.401Z,35.50
2023-05-18T21:30:26.844Z,35.60
2023-05-18T21:33:16.251Z,35.60
2023-05-18T21:36:09.078Z,35.60
2023-05-18T21:38:59.811Z,35.70
2023-05-18T21:41:49.265Z,35.80
2023-05-18T21:44:38.637Z,35.80
2023-05-18T21:47:28.139Z,35.70
2023-05-18T21:50:17.834Z,35.90
2023-05-18T21:53:07.178Z,35.90
2023-05-18T21:55:57.957Z,36.00
2023-05-18T21:58:47.334Z,36.10
2023-05-18T22:01:36.814Z,36.10
2023-05-18T22:04:26.503Z,36.20
2023-05-18T22:07:16.311Z,36.10
2023-05-18T22:10:06.445Z,36.20
2023-05-18T22:12:57.157Z,36.20
2023-05-18T22:15:46.543Z,36.30
2023-05-18T22:18:35.949Z,36.40
2023-05-18T22:21:25.492Z,36.30
2023-05-18T22:24:14.842Z,36.70
2023-05-18T22:27:04.471Z,36.50
2023-05-18T22:29:55.406Z,36.60
2023-05-18T22:32:46.262Z,36.70
2023-05-18T22:35:37.030Z,36.70
2023-05-18T22:38:26.813Z,36.70
2023-05-18T22:41:16.573Z,36.70
2023-05-18T22:44:06.381Z,36.80
2023-05-18T22:46:57.224Z,36.90
2023-05-18T22:49:46.981Z,37.00
2023-05-18T22:52:36.774Z,37.00
2023-05-18T22:55:26.135Z,37.10
2023-05-18T22:58:15.517Z,37.10
2023-05-18T23:01:04.897Z,37.10
2023-05-18T23:03:56.138Z,37.20
2023-05-18T23:06:48.714Z,37.30
2023-05-18T23:09:39.806Z,37.40
2023-05-18T23:12:30.392Z,37.20
2023-05-18T23:15:20.094Z,37.30
2023-05-18T23:18:10.280Z,37.20
2023-05-18T23:21:01.229Z,37.20
2023-05-18T23:23:50.621Z,37.20
2023-05-18T23:26:42.273Z,37.30
2023-05-18T23:29:31.799Z,37.40
2023-05-18T23:32:21.496Z,37.50
2023-05-18T23:35:13.984Z,37.50
2023-05-18T23:38:06.408Z,37.50
2023-05-18T23:40:56.139Z,37.60
2023-05-18T23:43:46.243Z,37.60
2023-05-18T23:46:36.917Z,37.60
2023-05-18T23:49:27.042Z,37.70
2023-05-18T23:52:17.619Z,37.70
2023-05-18T23:55:12.154Z,37.50
2023-05-18T23:58:03.238Z,37.80
